createdAt,value
2023-04-11T00:01:23.131Z,100222.25
2023-04-11T00:03:50.285Z,100193.22
2023-04-11T00:06:17.350Z,100205.97
2023-04-11T00:08:44.403Z,100211.72
2023-04-11T00:11:11.816Z,100191.09
2023-04-11T00:13:38.373Z,100183.22
2023-04-11T00:16:05.474Z,100198.72
2023-04-11T00:18:35.988Z,100207.13
2023-04-11T00:21:06.965Z,100203.06
2023-04-11T00:23:33.674Z,100200.38
2023-04-11T00:26:00.546Z,100209.63
2023-04-11T00:28:27.097Z,100209.66
2023-04-11T00:30:53.524Z,100218.63
2023-04-11T00:33:20.243Z,100214.84
2023-04-11T00:35:47.363Z,100214.91
2023-04-11T00:38:13.804Z,100238.78
2023-04-11T00:40:40.923Z,100246.41
2023-04-11T00:43:07.374Z,100246.38
2023-04-11T00:45:34.473Z,100259.09
2023-04-11T00:48:01.300Z,100253.97
2023-04-11T00:50:28.880Z,100249.66
2023-04-11T00:52:56.903Z,100253.97
2023-04-11T00:55:23.951Z,100264.03
2023-04-11T00:57:53.630Z,100265.63
2023-04-11T01:00:20.340Z,100262.16
2023-04-11T01:02:47.414Z,100255.44
2023-04-11T01:05:15.622Z,100261.94
2023-04-11T01:07:46.278Z,100266.25
2023-04-11T01:10:15.545Z,100272.25
2023-04-11T01:12:42.343Z,100276.59
2023-04-11T01:15:09.611Z,100272.78
2023-04-11T01:17:39.152Z,100283.06
2023-04-11T01:20:07.745Z,100267.34
2023-04-11T01:22:35.963Z,100257.84
2023-04-11T01:25:04.697Z,100257.88
2023-04-11T01:27:32.250Z,100265.75
2023-04-11T01:29:58.684Z,100265.72
2023-04-11T01:32:25.052Z,100244.03
2023-04-11T01:34:53.803Z,100234.81
2023-04-11T01:37:20.426Z,100235.38
2023-04-11T01:39:47.528Z,100231.91
2023-04-11T01:42:14.153Z,100237.31
2023-04-11T01:44:41.448Z,100241.34
2023-04-11T01:47:07.823Z,100226.16
2023-04-11T01:49:36.694Z,100224.00
2023-04-11T01:52:03.101Z,100226.41
2023-04-11T01:54:29.641Z,100216.41
2023-04-11T01:56:57.918Z,100212.94
2023-04-11T01:59:24.433Z,100224.84
2023-04-11T02:01:51.008Z,100220.50
2023-04-11T02:04:17.738Z,100214.84
2023-04-11T02:06:45.633Z,100211.56
2023-04-11T02:09:12.036Z,100201.03
2023-04-11T02:11:38.520Z,100196.69
2023-04-11T02:14:06.262Z,100201.84
2023-04-11T02:16:33.901Z,100198.84
2023-04-11T02:19:00.966Z,100208.63
2023-04-11T02:21:28.143Z,100199.41
2023-04-11T02:24:00.277Z,100182.59
2023-04-11T02:26:27.215Z,100183.69
2023-04-11T02:28:56.047Z,100190.97
2023-04-11T02:31:22.975Z,100186.13
2023-04-11T02:33:49.496Z,100193.97
2023-04-11T02:36:18.620Z,100193.41
2023-04-11T02:38:45.701Z,100198.25
2023-04-11T02:41:12.301Z,100202.91
2023-04-11T02:43:38.727Z,100192.63
2023-04-11T02:46:12.757Z,100182.03
2023-04-11T02:48:41.956Z,100189.91
2023-04-11T02:51:09.463Z,100195.59
2023-04-11T02:53:36.116Z,100190.72
2023-04-11T02:56:02.508Z,100202.41
2023-04-11T02:58:29.217Z,100228.94
2023-04-11T03:01:00.653Z,100280.97
2023-04-11T03:03:27.404Z,100268.91
2023-04-11T03:05:54.024Z,100241.69
2023-04-11T03:08:23.337Z,100262.56
2023-04-11T03:10:52.917Z,100258.44
2023-04-11T03:13:22.938Z,100257.97
2023-04-11T03:15:49.515Z,100253.91
2023-04-11T03:18:16.972Z,100253.66
2023-04-11T03:20:46.895Z,100249.88
2023-04-11T03:23:15.350Z,100247.47
2023-04-11T03:25:44.538Z,100236.47
2023-04-11T03:28:13.537Z,100242.66
2023-04-11T03:30:42.432Z,100222.97
2023-04-11T03:33:12.203Z,100221.72
2023-04-11T03:35:39.585Z,100222.06
2023-04-11T03:38:06.033Z,100222.69
2023-04-11T03:40:33.282Z,100219.66
2023-04-11T03:43:10.812Z,100220.72
2023-04-11T03:45:37.265Z,100211.00
2023-04-11T03:48:07.551Z,100214.59
2023-04-11T03:50:48.508Z,100214.03
2023-04-11T03:53:19.122Z,100193.63
2023-04-11T03:55:49.344Z,100208.69
2023-04-11T03:58:18.488Z,100210.31
2023-04-11T04:00:46.686Z,100223.00
2023-04-11T04:03:13.790Z,100221.41
2023-04-11T04:05:41.427Z,100219.06
2023-04-11T04:08:08.990Z,100218.81
2023-04-11T04:10:42.828Z,100228.50
2023-04-11T04:13:09.553Z,100232.22
2023-04-11T04:15:40.678Z,100227.94
2023-04-11T04:18:08.910Z,100220.38
2023-04-11T04:21:02.114Z,100218.25
2023-04-11T04:23:32.638Z,100230.63
2023-04-11T04:26:17.762Z,100226.06
2023-04-11T04:28:54.200Z,100233.41
2023-04-11T04:31:29.744Z,100223.66
2023-04-11T04:34:09.185Z,100236.09
2023-04-11T04:36:47.808Z,100232.91
2023-04-11T04:39:19.401Z,100226.69
2023-04-11T04:41:49.865Z,100218.53
2023-04-11T04:44:17.784Z,100226.69
2023-04-11T04:46:55.529Z,100232.63
2023-04-11T04:49:24.569Z,100224.56
2023-04-11T04:51:51.072Z,100217.00
2023-04-11T04:54:19.391Z,100227.03
2023-04-11T04:56:48.312Z,100231.91
2023-04-11T04:59:16.499Z,100233.22
2023-04-11T05:01:50.742Z,100240.81
2023-04-11T05:04:23.266Z,100243.88
2023-04-11T05:06:53.743Z,100230.63
2023-04-11T05:09:20.417Z,100242.78
2023-04-11T05:11:50.389Z,100239.31
2023-04-11T05:14:21.696Z,100237.94
2023-04-11T05:16:48.876Z,100243.13
2023-04-11T05:19:15.647Z,100239.38
2023-04-11T05:21:47.546Z,100236.41
2023-04-11T05:24:14.158Z,100235.88
2023-04-11T05:26:40.677Z,100241.84
2023-04-11T05:29:07.821Z,100241.28
2023-04-11T05:31:34.574Z,100250.78
2023-04-11T05:34:02.330Z,100256.69
2023-04-11T05:36:29.417Z,100255.91
2023-04-11T05:38:55.887Z,100255.66
2023-04-11T05:41:22.355Z,100261.09
2023-04-11T05:43:52.180Z,100264.13
2023-04-11T05:46:23.241Z,100279.50
2023-04-11T05:48:49.735Z,100276.75
2023-04-11T05:51:16.477Z,100304.59
2023-04-11T05:53:43.942Z,100299.66
2023-04-11T05:56:12.366Z,100300.00
2023-04-11T05:58:39.403Z,100303.72
2023-04-11T06:01:07.417Z,100311.81
2023-04-11T06:03:34.490Z,100296.91
2023-04-11T06:06:01.079Z,100307.22
2023-04-11T06:08:27.601Z,100300.28
2023-04-11T06:10:54.022Z,100300.22
2023-04-11T06:13:20.716Z,100299.47
2023-04-11T06:15:47.696Z,100302.69
2023-04-11T06:18:14.205Z,100304.25
2023-04-11T06:20:40.654Z,100306.50
2023-04-11T06:23:07.137Z,100304.84
2023-04-11T06:25:33.560Z,100314.31
2023-04-11T06:28:00.060Z,100310.00
2023-04-11T06:30:26.469Z,100310.53
2023-04-11T06:32:53.176Z,100309.13
2023-04-11T06:35:20.626Z,100320.50
2023-04-11T06:37:47.362Z,100316.22
2023-04-11T06:40:13.976Z,100328.06
2023-04-11T06:42:42.056Z,100330.56
2023-04-11T06:45:10.369Z,100331.47
2023-04-11T06:47:36.832Z,100326.13
2023-04-11T06:50:03.964Z,100323.50
2023-04-11T06:52:30.533Z,100320.50
2023-04-11T06:54:57.057Z,100330.16
2023-04-11T06:57:23.498Z,100339.34
2023-04-11T06:59:49.951Z,100331.03
2023-04-11T07:02:16.928Z,100333.44
2023-04-11T07:04:43.759Z,100336.16
2023-04-11T07:07:10.262Z,100337.25
2023-04-11T07:09:36.750Z,100340.75
2023-04-11T07:12:03.221Z,100341.56
2023-04-11T07:14:29.670Z,100343.97
2023-04-11T07:16:56.148Z,100343.56
2023-04-11T07:19:22.626Z,100340.09
2023-04-11T07:21:49.665Z,100347.09
2023-04-11T07:24:18.769Z,100359.88
2023-04-11T07:26:46.396Z,100351.81
2023-04-11T07:29:14.683Z,100346.97
2023-04-11T07:31:44.725Z,100359.44
2023-04-11T07:34:11.334Z,100353.25
2023-04-11T07:36:37.773Z,100353.25
2023-04-11T07:39:04.548Z,100363.59
2023-04-11T07:41:31.207Z,100354.66
2023-04-11T07:43:58.083Z,100354.91
2023-04-11T07:46:24.798Z,100357.63
2023-04-11T07:48:51.270Z,100374.13
2023-04-11T07:51:18.018Z,100371.41
2023-04-11T07:53:44.473Z,100377.41
2023-04-11T07:56:10.950Z,100384.69
2023-04-11T07:58:37.537Z,100384.44
2023-04-11T08:01:05.499Z,100385.81
2023-04-11T08:03:32.643Z,100391.25
2023-04-11T08:05:59.603Z,100387.16
2023-04-11T08:08:26.407Z,100390.44
2023-04-11T08:10:53.259Z,100383.66
2023-04-11T08:13:19.692Z,100392.06
2023-04-11T08:15:47.045Z,100387.22
2023-04-11T08:18:13.692Z,100389.09
2023-04-11T08:20:40.796Z,100386.63
2023-04-11T08:23:08.695Z,100398.31
2023-04-11T08:25:36.554Z,100394.75
2023-04-11T08:28:04.603Z,100402.84
2023-04-11T08:30:31.242Z,100400.16
2023-04-11T08:32:58.177Z,100396.31
2023-04-11T08:35:24.632Z,100410.38
2023-04-11T08:37:51.153Z,100408.53
2023-04-11T08:40:18.106Z,100417.50
2023-04-11T08:42:45.928Z,100405.59
2023-04-11T08:45:12.665Z,100401.59
2023-04-11T08:47:39.271Z,100402.94
2023-04-11T08:50:06.660Z,100411.31
2023-04-11T08:52:34.772Z,100411.06
2023-04-11T08:55:01.732Z,100413.50
2023-04-11T08:57:31.909Z,100394.78
2023-04-11T09:00:02.689Z,100406.72
2023-04-11T09:02:29.604Z,100398.53
2023-04-11T09:04:57.692Z,100411.75
2023-04-11T09:07:24.560Z,100419.00
2023-04-11T09:09:51.045Z,100411.66
2023-04-11T09:12:21.502Z,100413.53
2023-04-11T09:14:48.131Z,100405.69
2023-04-11T09:17:16.142Z,100422.22
2023-04-11T09:19:42.928Z,100455.94
2023-04-11T09:22:09.479Z,100451.75
2023-04-11T09:24:37.113Z,100461.16
2023-04-11T09:27:17.218Z,100461.41
2023-04-11T09:29:53.151Z,100463.03
2023-04-11T09:32:38.986Z,100450.81
2023-04-11T09:35:22.876Z,100451.91
2023-04-11T09:38:00.240Z,100449.19
2023-04-11T09:40:31.908Z,100461.41
2023-04-11T09:43:03.212Z,100465.72
2023-04-11T09:45:38.135Z,100461.69
2023-04-11T09:48:08.166Z,100455.41
2023-04-11T09:50:36.843Z,100467.09
2023-04-11T09:53:05.675Z,100467.16
2023-04-11T09:55:32.865Z,100460.06
2023-04-11T09:58:00.046Z,100468.53
2023-04-11T10:00:32.554Z,100460.41
2023-04-11T10:02:59.284Z,100457.69
2023-04-11T10:05:28.434Z,100460.97
2023-04-11T10:08:07.881Z,100464.97
2023-04-11T10:10:36.750Z,100464.13
2023-04-11T10:13:03.552Z,100466.56
2023-04-11T10:15:30.393Z,100460.25
2023-04-11T10:18:11.566Z,100453.22
2023-04-11T10:20:43.663Z,100458.41
2023-04-11T10:23:11.198Z,100455.38
2023-04-11T10:26:00.511Z,100454.56
2023-04-11T10:28:36.737Z,100462.53
2023-04-11T10:31:05.271Z,100466.72
2023-04-11T10:33:34.781Z,100464.31
2023-04-11T10:36:11.407Z,100469.00
2023-04-11T10:38:41.195Z,100467.75
2023-04-11T10:41:34.717Z,100471.41
2023-04-11T10:44:21.050Z,100482.38
2023-04-11T10:46:54.150Z,100473.47
2023-04-11T10:49:39.803Z,100476.84
2023-04-11T10:52:22.795Z,100473.16
2023-04-11T10:54:51.207Z,100482.75
2023-04-11T10:57:18.189Z,100494.72
2023-04-11T10:59:44.665Z,100485.13
2023-04-11T11:02:11.833Z,100490.84
2023-04-11T11:04:40.385Z,100489.66
2023-04-11T11:07:15.088Z,100491.56
2023-04-11T11:09:48.461Z,100494.59
2023-04-11T11:12:17.270Z,100504.72
2023-04-11T11:14:46.212Z,100501.66
2023-04-11T11:17:14.272Z,100503.16
2023-04-11T11:19:44.965Z,100501.31
2023-04-11T11:22:28.069Z,100498.47
2023-04-11T11:24:54.620Z,100499.97
2023-04-11T11:27:23.664Z,100502.53
2023-04-11T11:29:50.997Z,100503.25
2023-04-11T11:32:28.354Z,100513.66
2023-04-11T11:34:55.528Z,100529.25
2023-04-11T11:37:23.153Z,100501.59
2023-04-11T11:39:50.031Z,100513.97
2023-04-11T11:42:18.340Z,100505.81
2023-04-11T11:44:44.934Z,100503.19
2023-04-11T11:47:14.981Z,100515.00
2023-04-11T11:49:47.341Z,100506.78
2023-04-11T11:52:43.331Z,100516.31
2023-04-11T11:55:19.252Z,100523.03
2023-04-11T11:57:48.285Z,100526.16
2023-04-11T12:00:23.523Z,100529.94
2023-04-11T12:02:55.110Z,100532.59
2023-04-11T12:05:24.798Z,100528.75
2023-04-11T12:07:58.597Z,100535.69
2023-04-11T12:10:35.720Z,100541.56
2023-04-11T12:13:02.174Z,100540.97
2023-04-11T12:15:28.810Z,100538.34
2023-04-11T12:17:55.619Z,100521.41
2023-04-11T12:20:27.974Z,100536.75
2023-04-11T12:22:55.395Z,100535.84
2023-04-11T12:25:22.584Z,100540.66
2023-04-11T12:27:49.512Z,100550.81
2023-04-11T12:30:16.275Z,100545.53
2023-04-11T12:32:43.850Z,100559.84
2023-04-11T12:35:11.381Z,100579.06
2023-04-11T12:37:38.458Z,100602.47
2023-04-11T12:40:12.623Z,100596.03
2023-04-11T12:42:53.162Z,100603.88
2023-04-11T12:45:22.364Z,100602.88
2023-04-11T12:47:49.360Z,100593.56
2023-04-11T12:50:16.240Z,100590.56
2023-04-11T12:52:42.854Z,100593.78
2023-04-11T12:55:09.861Z,100605.53
2023-04-11T12:57:39.717Z,100601.31
2023-04-11T13:00:07.173Z,100592.19
2023-04-11T13:02:42.154Z,100600.94
2023-04-11T13:05:11.339Z,100597.16
2023-04-11T13:07:37.988Z,100599.84
2023-04-11T13:10:07.799Z,100605.03
2023-04-11T13:12:39.613Z,100603.63
2023-04-11T13:15:07.991Z,100603.09
2023-04-11T13:17:34.973Z,100603.66
2023-04-11T13:20:07.076Z,100630.81
2023-04-11T13:22:34.690Z,100624.00
2023-04-11T13:25:01.197Z,100610.94
2023-04-11T13:27:32.093Z,100607.94
2023-04-11T13:29:58.703Z,100617.09
2023-04-11T13:32:32.669Z,100620.09
2023-04-11T13:34:59.371Z,100616.88
2023-04-11T13:37:25.869Z,100607.97
2023-04-11T13:39:52.388Z,100619.06
2023-04-11T13:42:18.956Z,100629.06
2023-04-11T13:44:53.171Z,100635.31
2023-04-11T13:47:19.683Z,100628.50
2023-04-11T13:49:46.306Z,100606.28
2023-04-11T13:52:12.786Z,100595.72
2023-04-11T13:54:39.295Z,100606.59
2023-04-11T13:57:09.270Z,100623.19
2023-04-11T13:59:36.296Z,100622.66
2023-04-11T14:02:02.905Z,100643.84
2023-04-11T14:04:29.500Z,100637.31
2023-04-11T14:06:55.947Z,100610.13
2023-04-11T14:09:22.617Z,100626.88
2023-04-11T14:11:49.178Z,100630.94
2023-04-11T14:14:15.853Z,100629.25
2023-04-11T14:16:42.471Z,100632.50
2023-04-11T14:19:08.956Z,100631.69
2023-04-11T14:21:35.865Z,100639.31
2023-04-11T14:24:02.864Z,100643.66
2023-04-11T14:26:29.331Z,100654.00
2023-04-11T14:28:55.959Z,100649.19
2023-04-11T14:31:22.781Z,100652.41
2023-04-11T14:33:49.562Z,100652.16
2023-04-11T14:36:16.493Z,100653.03
2023-04-11T14:38:42.923Z,100666.59
2023-04-11T14:41:10.374Z,100659.53
2023-04-11T14:43:36.828Z,100655.69
2023-04-11T14:46:03.397Z,100662.25
2023-04-11T14:48:29.923Z,100644.91
2023-04-11T14:50:56.366Z,100664.69
2023-04-11T14:53:23.053Z,100657.38
2023-04-11T14:55:49.809Z,100657.09
2023-04-11T14:58:17.235Z,100682.63
2023-04-11T15:00:44.730Z,100676.34
2023-04-11T15:03:12.302Z,100682.56
2023-04-11T15:05:39.120Z,100677.72
2023-04-11T15:08:06.454Z,100675.81
2023-04-11T15:10:33.611Z,100675.84
2023-04-11T15:13:00.150Z,100678.28
2023-04-11T15:15:26.611Z,100665.53
2023-04-11T15:18:26.914Z,100674.22
2023-04-11T15:20:54.840Z,100673.94
2023-04-11T15:23:21.558Z,100675.53
2023-04-11T15:26:01.000Z,100679.09
2023-04-11T15:28:32.785Z,100671.22
2023-04-11T15:30:59.421Z,100674.47
2023-04-11T15:33:26.421Z,100674.97
2023-04-11T15:35:56.795Z,100674.44
2023-04-11T15:38:25.499Z,100681.78
2023-04-11T15:40:54.194Z,100680.97
2023-04-11T15:43:21.566Z,100683.66
2023-04-11T15:45:48.442Z,100685.78
2023-04-11T15:48:15.184Z,100672.47
2023-04-11T15:50:42.907Z,100674.06
2023-04-11T15:53:09.660Z,100673.81
2023-04-11T15:55:40.888Z,100676.75
2023-04-11T15:58:08.806Z,100673.22
2023-04-11T16:00:36.616Z,100682.19
2023-04-11T16:03:04.581Z,100667.81
2023-04-11T16:05:36.678Z,100664.84
2023-04-11T16:08:03.104Z,100672.72
2023-04-11T16:10:30.200Z,100669.19
2023-04-11T16:12:56.778Z,100667.81
2023-04-11T16:15:23.623Z,100659.94
2023-04-11T16:17:50.255Z,100665.91
2023-04-11T16:20:21.301Z,100666.16
2023-04-11T16:22:48.463Z,100661.53
2023-04-11T16:25:16.362Z,100667.47
2023-04-11T16:27:42.932Z,100660.69
2023-04-11T16:30:09.612Z,100661.22
2023-04-11T16:32:39.135Z,100672.09
2023-04-11T16:35:05.964Z,100672.94
2023-04-11T16:37:32.789Z,100668.28
2023-04-11T16:40:00.214Z,100671.53
2023-04-11T16:42:26.767Z,100665.03
2023-04-11T16:44:53.216Z,100670.22
2023-04-11T16:47:20.502Z,100671.25
2023-04-11T16:49:47.504Z,100675.38
2023-04-11T16:52:13.975Z,100672.66
2023-04-11T16:54:40.358Z,100669.69
2023-04-11T16:57:06.768Z,100675.66
2023-04-11T16:59:33.614Z,100672.94
2023-04-11T17:02:00.193Z,100663.16
2023-04-11T17:04:28.133Z,100671.38
2023-04-11T17:06:55.784Z,100669.69
2023-04-11T17:09:22.368Z,100680.38
2023-04-11T17:11:49.064Z,100685.28
2023-04-11T17:14:16.059Z,100680.13
2023-04-11T17:16:43.417Z,100673.88
2023-04-11T17:19:10.399Z,100682.56
2023-04-11T17:21:36.850Z,100694.84
2023-04-11T17:24:03.434Z,100685.06
2023-04-11T17:26:29.883Z,100684.50
2023-04-11T17:28:56.886Z,100681.78
2023-04-11T17:31:24.100Z,100681.28
2023-04-11T17:33:50.562Z,100690.53
2023-04-11T17:36:18.548Z,100696.50
2023-04-11T17:38:46.406Z,100689.97
2023-04-11T17:41:15.385Z,100692.69
2023-04-11T17:43:43.529Z,100691.09
2023-04-11T17:46:12.231Z,100687.00
2023-04-11T17:48:38.958Z,100694.06
2023-04-11T17:51:05.970Z,100685.91
2023-04-11T17:53:33.814Z,100690.53
2023-04-11T17:56:05.645Z,100691.59
2023-04-11T17:58:33.718Z,100695.69
2023-04-11T18:01:00.249Z,100696.22
2023-04-11T18:03:26.890Z,100708.66
2023-04-11T18:05:54.618Z,100710.53
2023-04-11T18:08:28.783Z,100706.16
2023-04-11T18:10:59.763Z,100709.13
2023-04-11T18:13:27.281Z,100704.72
2023-04-11T18:15:54.115Z,100698.47
2023-04-11T18:18:20.706Z,100703.84
2023-04-11T18:20:47.913Z,100705.41
2023-04-11T18:23:14.341Z,100710.78
2023-04-11T18:25:40.768Z,100713.69
2023-04-11T18:28:07.236Z,100712.25
2023-04-11T18:30:33.912Z,100705.94
2023-04-11T18:33:00.438Z,100705.03
2023-04-11T18:35:27.876Z,100715.28
2023-04-11T18:37:54.535Z,100707.63
2023-04-11T18:40:21.319Z,100705.09
2023-04-11T18:42:50.443Z,100708.03
2023-04-11T18:45:20.462Z,100708.78
2023-04-11T18:47:47.585Z,100708.19
2023-04-11T18:50:15.363Z,100713.06
2023-04-11T18:52:42.632Z,100713.75
2023-04-11T18:55:10.502Z,100719.13
2023-04-11T18:57:38.494Z,100721.53
2023-04-11T19:00:17.456Z,100711.97
2023-04-11T19:02:45.650Z,100713.81
2023-04-11T19:05:13.662Z,100715.44
2023-04-11T19:07:41.748Z,100722.19
2023-04-11T19:10:09.432Z,100719.72
2023-04-11T19:12:37.074Z,100722.94
2023-04-11T19:15:06.478Z,100725.84
2023-04-11T19:17:35.059Z,100727.91
2023-04-11T19:20:02.533Z,100731.38
2023-04-11T19:22:29.865Z,100732.94
2023-04-11T19:24:56.436Z,100739.63
2023-04-11T19:27:23.380Z,100736.06
2023-04-11T19:29:50.079Z,100732.00
2023-04-11T19:32:18.968Z,100730.78
2023-04-11T19:34:46.737Z,100728.28
2023-04-11T19:37:13.885Z,100746.31
2023-04-11T19:39:41.320Z,100733.22
2023-04-11T19:42:10.192Z,100738.44
2023-04-11T19:44:38.527Z,100728.13
2023-04-11T19:47:05.438Z,100720.13
2023-04-11T19:49:33.548Z,100721.91
2023-04-11T19:52:00.069Z,100716.25
2023-04-11T19:54:26.634Z,100716.50
2023-04-11T19:56:53.364Z,100718.34
2023-04-11T19:59:20.594Z,100714.53
2023-04-11T20:01:47.846Z,100707.66
2023-04-11T20:04:15.881Z,100705.97
2023-04-11T20:06:47.614Z,100699.09
2023-04-11T20:09:14.155Z,100693.75
2023-04-11T20:11:41.710Z,100678.53
2023-04-11T20:14:08.529Z,100688.44
2023-04-11T20:16:35.172Z,100681.00
2023-04-11T20:19:01.826Z,100682.56
2023-04-11T20:21:28.505Z,100681.41
2023-04-11T20:23:55.016Z,100672.31
2023-04-11T20:26:22.594Z,100663.59
2023-04-11T20:28:50.626Z,100662.19
2023-04-11T20:31:17.811Z,100669.16
2023-04-11T20:33:47.817Z,100666.09
2023-04-11T20:36:15.512Z,100661.94
2023-04-11T20:38:42.083Z,100659.72
2023-04-11T20:41:08.737Z,100656.94
2023-04-11T20:43:41.598Z,100664.41
2023-04-11T20:46:08.786Z,100655.13
2023-04-11T20:48:36.051Z,100653.75
2023-04-11T20:51:04.404Z,100658.16
2023-04-11T20:53:30.814Z,100658.22
2023-04-11T20:55:57.351Z,100653.00
2023-04-11T20:58:24.068Z,100650.06
2023-04-11T21:00:50.547Z,100658.94
2023-04-11T21:03:17.932Z,100657.69
2023-04-11T21:05:46.692Z,100653.50
2023-04-11T21:08:13.410Z,100649.28
2023-04-11T21:10:39.831Z,100647.53
2023-04-11T21:13:06.292Z,100642.38
2023-04-11T21:15:35.635Z,100642.84
2023-04-11T21:18:02.110Z,100652.41
2023-04-11T21:20:28.745Z,100639.53
2023-04-11T21:22:55.311Z,100640.16
2023-04-11T21:25:23.187Z,100634.44
2023-04-11T21:27:49.976Z,100644.41
2023-04-11T21:30:17.082Z,100637.03
2023-04-11T21:32:43.553Z,100647.69
2023-04-11T21:35:11.138Z,100645.38
2023-04-11T21:37:37.601Z,100634.03
2023-04-11T21:40:04.580Z,100641.16
2023-04-11T21:42:31.482Z,100631.19
2023-04-11T21:44:58.019Z,100635.97
2023-04-11T21:47:24.533Z,100628.50
2023-04-11T21:49:51.013Z,100624.28
2023-04-11T21:52:18.103Z,100622.06
2023-04-11T21:54:45.045Z,100620.44
2023-04-11T21:57:11.610Z,100621.06
2023-04-11T21:59:38.958Z,100616.72
2023-04-11T22:02:05.889Z,100615.31
2023-04-11T22:04:44.338Z,100608.44
2023-04-11T22:07:25.305Z,100603.25
2023-04-11T22:09:59.480Z,100601.84
2023-04-11T22:12:29.423Z,100601.72
2023-04-11T22:14:57.031Z,100595.91
2023-04-11T22:17:23.965Z,100592.63
2023-04-11T22:19:50.545Z,100594.53
2023-04-11T22:22:18.917Z,100590.75
2023-04-11T22:24:53.441Z,100589.03
2023-04-11T22:27:20.044Z,100593.22
2023-04-11T22:29:46.988Z,100586.81
2023-04-11T22:32:13.378Z,100583.91
2023-04-11T22:34:39.824Z,100573.94
2023-04-11T22:37:06.209Z,100576.28
2023-04-11T22:39:34.239Z,100577.09
2023-04-11T22:42:00.716Z,100566.56
2023-04-11T22:44:27.131Z,100574.06
2023-04-11T22:46:59.795Z,100566.13
2023-04-11T22:49:27.228Z,100568.56
2023-04-11T22:51:59.022Z,100566.13
2023-04-11T22:54:27.150Z,100543.28
2023-04-11T22:56:56.580Z,100552.44
2023-04-11T22:59:24.361Z,100542.25
2023-04-11T23:01:51.552Z,100536.06
2023-04-11T23:04:19.813Z,100533.94
2023-04-11T23:06:53.492Z,100540.34
2023-04-11T23:09:20.729Z,100541.19
2023-04-11T23:11:47.901Z,100538.16
2023-04-11T23:14:18.184Z,100527.03
2023-04-11T23:16:45.146Z,100531.84
2023-04-11T23:19:11.993Z,100526.69
2023-04-11T23:21:38.575Z,100520.94
2023-04-11T23:24:06.828Z,100516.50
2023-04-11T23:26:33.967Z,100510.09
2023-04-11T23:29:02.755Z,100520.84
2023-04-11T23:31:30.907Z,100505.50
2023-04-11T23:33:57.555Z,100497.06
2023-04-11T23:36:24.392Z,100494.16
2023-04-11T23:38:51.647Z,100492.03
2023-04-11T23:41:18.812Z,100488.66
2023-04-11T23:43:45.547Z,100481.31
2023-04-11T23:46:13.095Z,100482.88
2023-04-11T23:48:39.522Z,100475.03
2023-04-11T23:51:06.473Z,100469.19
2023-04-11T23:53:34.088Z,100461.00
2023-04-11T23:56:00.651Z,100450.59
2023-04-11T23:58:27.819Z,100433.75
